Time;durP1;ratioP1;P1;durP2;ratioP2;P2;SDS_P1;SDS_P2;PMS_P1;PMS_P2;Temp;Humidity;BMP_temperature;BMP_pressure;BME280_temperature;BME280_humidity;BME280_pressure;Samples;Min_cycle;Max_cycle;Signal;HPM_P1;HPM_P2
2022/12/05 00:01:57;;;;;;;;;;;;;;;10.27;95.32;101049.16;5042863;28;20231;-66
2022/12/05 00:04:23;;;;;;;;;;;;;;;10.29;94.80;101055.16;5042398;28;20095;-66
2022/12/05 00:06:48;;;;;;;;;;;;;;;10.30;94.88;101056.84;5041268;28;19924;-74
2022/12/05 00:09:13;;;;;;;;;;;;;;;10.32;94.49;101062.03;5040148;28;19913;-66
2022/12/05 00:11:40;;;;;;;;;;;;;;;10.35;93.85;101065.25;5041212;28;20217;-66
2022/12/05 00:14:07;;;;;;;;;;;;;;;10.35;93.91;101067.06;5041665;28;19913;-74
2022/12/05 00:16:34;;;;;;;;;;;;;;;10.35;95.15;101067.06;5042822;28;20241;-67
2022/12/05 00:19:00;;;;;;;;;;;;;;;10.33;94.84;101061.91;5023517;28;19921;-66
2022/12/05 00:21:26;;;;;;;;;;;;;;;10.36;94.42;101055.50;5041392;28;19939;-73
2022/12/05 00:23:52;;;;;;;;;;;;;;;10.34;95.05;101045.03;5040773;28;19919;-74
2022/12/05 00:26:18;;;;;;;;;;;;;;;10.36;94.83;101047.56;5040983;28;19963;-74
2022/12/05 00:28:44;;;;;;;;;;;;;;;10.38;95.17;101051.75;5041081;28;20202;-74
2022/12/05 00:31:11;;;;;;;;;;;;;;;10.42;93.89;101057.66;5023268;28;19916;-70
2022/12/05 00:33:36;;;;;;;;;;;;;;;10.45;93.45;101054.75;5040298;28;19913;-74
2022/12/05 00:36:03;;;;;;;;;;;;;;;10.46;92.74;101053.78;5036993;28;19917;-66
2022/12/05 00:38:28;;;;;;;;;;;;;;;10.49;92.53;101053.53;5040920;28;19913;-73
2022/12/05 00:40:53;;;;;;;;;;;;;;;10.51;92.29;101051.59;5040916;28;19917;-74
2022/12/05 00:43:19;;;;;;;;;;;;;;;10.52;92.04;101048.81;5040876;28;19980;-67
2022/12/05 00:45:44;;;;;;;;;;;;;;;10.46;92.30;101054.63;5042471;28;20106;-74
2022/12/05 00:48:09;;;;;;;;;;;;;;;10.50;93.29;101047.25;5040269;28;19959;-66
2022/12/05 00:50:35;;;;;;;;;;;;;;;10.44;93.35;101045.13;5040112;28;19972;-74
2022/12/05 00:53:00;;;;;;;;;;;;;;;10.37;93.48;101047.44;5040523;28;19959;-66
2022/12/05 00:55:26;;;;;;;;;;;;;;;10.38;93.66;101056.22;5040414;28;19925;-67
2022/12/05 00:57:51;;;;;;;;;;;;;;;10.40;93.02;101056.91;5040425;28;19920;-74
2022/12/05 01:00:16;;;;;;;;;;;;;;;10.46;93.60;101056.44;5039653;28;20207;-67
2022/12/05 01:02:42;;;;;;;;;;;;;;;10.50;92.84;101044.63;5041458;28;19913;-67
2022/12/05 01:05:07;;;;;;;;;;;;;;;10.51;93.29;101056.88;5041695;28;20106;-74
2022/12/05 01:07:33;;;;;;;;;;;;;;;10.51;92.63;101051.59;5039694;28;19955;-70
2022/12/05 01:09:58;;;;;;;;;;;;;;;10.50;92.79;101045.47;5040503;28;20299;-67
2022/12/05 01:12:23;;;;;;;;;;;;;;;10.52;93.04;101053.28;5040095;28;20363;-67
2022/12/05 01:14:49;;;;;;;;;;;;;;;10.53;92.74;101054.94;5042133;28;20203;-66
2022/12/05 01:17:14;;;;;;;;;;;;;;;10.58;92.66;101051.91;5041692;28;19912;-74
2022/12/05 01:19:39;;;;;;;;;;;;;;;10.51;93.39;101052.44;5039119;28;19916;-74
2022/12/05 01:22:04;;;;;;;;;;;;;;;10.51;92.82;101046.28;5042336;28;19941;-74
2022/12/05 01:24:30;;;;;;;;;;;;;;;10.50;93.17;101045.47;5040377;28;19913;-67
2022/12/05 01:26:56;;;;;;;;;;;;;;;10.49;92.96;101042.94;5039440;28;19924;-67
2022/12/05 01:29:22;;;;;;;;;;;;;;;10.48;92.89;101043.91;5040058;28;20134;-74
2022/12/05 01:31:48;;;;;;;;;;;;;;;10.50;93.20;101040.16;5039938;28;19992;-68
2022/12/05 01:34:14;;;;;;;;;;;;;;;10.50;92.86;101047.25;5040818;28;19967;-66
2022/12/05 01:36:40;;;;;;;;;;;;;;;10.51;93.57;101046.28;5041416;28;20114;-67
2022/12/05 01:39:06;;;;;;;;;;;;;;;10.53;93.16;101041.72;5039974;28;19944;-74
2022/12/05 01:41:33;;;;;;;;;;;;;;;10.53;92.97;101044.34;5040019;28;20110;-73
2022/12/05 01:44:00;;;;;;;;;;;;;;;10.57;93.25;101034.34;5040166;28;20199;-67
2022/12/05 01:46:26;;;;;;;;;;;;;;;10.51;93.54;101035.69;5038901;28;19948;-66
2022/12/05 01:48:54;;;;;;;;;;;;;;;10.51;92.59;101025.94;5040019;28;19952;-74
2022/12/05 01:51:19;;;;;;;;;;;;;;;10.52;92.89;101024.97;5039891;28;19917;-67
2022/12/05 01:53:45;;;;;;;;;;;;;;;10.52;93.12;101024.13;5040076;28;20225;-73
2022/12/05 01:56:11;;;;;;;;;;;;;;;10.54;92.47;101020.38;5039905;28;19919;-74
2022/12/05 01:58:37;;;;;;;;;;;;;;;10.53;92.27;101016.06;5039161;28;19915;-67
2022/12/05 02:01:03;;;;;;;;;;;;;;;10.57;93.05;101015.81;5039141;28;19924;-74
2022/12/05 02:03:28;;;;;;;;;;;;;;;10.54;93.38;101023.03;5041584;28;19920;-74
2022/12/05 02:05:55;;;;;;;;;;;;;;;10.52;93.46;101016.19;5041536;28;19980;-66
2022/12/05 02:08:21;;;;;;;;;;;;;;;10.53;93.06;101016.06;5039660;28;19912;-74
2022/12/05 02:10:52;;;;;;;;;;;;;;;10.56;93.32;101020.25;5038627;28;20111;-74
2022/12/05 02:13:17;;;;;;;;;;;;;;;10.55;93.10;101023.88;5039364;28;19913;-74
2022/12/05 02:15:46;;;;;;;;;;;;;;;10.56;93.01;101017.63;5039580;28;19925;-74
2022/12/05 02:18:48;;;;;;;;;;;;;;;10.56;93.86;101017.63;5038817;28;19912;-74
2022/12/05 02:21:16;;;;;;;;;;;;;;;10.52;93.80;101014.38;4959232;29;19954;-74
2022/12/05 02:23:59;;;;;;;;;;;;;;;10.50;94.13;101010.19;5024146;28;19956;-67
2022/12/05 02:26:51;;;;;;;;;;;;;;;10.50;94.20;101012.84;5039512;28;19924;-66
2022/12/05 02:29:35;;;;;;;;;;;;;;;10.54;93.48;101016.91;5033396;28;20110;-74
2022/12/05 02:32:05;;;;;;;;;;;;;;;10.45;94.47;101012.38;5041402;28;19944;-67
2022/12/05 02:34:37;;;;;;;;;;;;;;;10.18;95.31;101004.91;5044268;28;19921;-67
2022/12/05 02:37:07;;;;;;;;;;;;;;;10.26;95.12;101005.13;5043139;28;19924;-73
2022/12/05 02:39:32;;;;;;;;;;;;;;;10.28;94.55;101008.50;5043282;28;19920;-73
2022/12/05 02:42:08;;;;;;;;;;;;;;;10.32;94.84;101014.38;5042223;28;20266;-67
2022/12/05 02:44:39;;;;;;;;;;;;;;;10.34;94.83;101010.63;5043039;28;20146;-67
2022/12/05 02:47:06;;;;;;;;;;;;;;;10.39;93.92;101021.66;5043466;28;19948;-74
2022/12/05 02:49:34;;;;;;;;;;;;;;;10.44;93.68;101000.97;5042114;28;19913;-74
2022/12/05 02:52:01;;;;;;;;;;;;;;;10.39;93.68;101005.78;5042422;28;19992;-67
2022/12/05 02:54:28;;;;;;;;;;;;;;;10.33;93.83;101005.47;5043155;28;19913;-74
2022/12/05 02:56:56;;;;;;;;;;;;;;;10.37;93.92;101002.41;5038881;28;19924;-74
2022/12/05 02:59:21;;;;;;;;;;;;;;;10.36;94.27;100992.78;5042692;28;19928;-67
2022/12/05 03:01:48;;;;;;;;;;;;;;;10.39;93.30;101002.28;5042557;28;19971;-74
2022/12/05 03:04:14;;;;;;;;;;;;;;;10.42;94.41;101000.25;5041896;28;20218;-74
2022/12/05 03:06:54;;;;;;;;;;;;;;;10.38;93.90;101001.44;5042287;28;19924;-74
2022/12/05 03:09:26;;;;;;;;;;;;;;;10.31;95.02;101000.28;5039594;28;19913;-74
2022/12/05 03:11:55;;;;;;;;;;;;;;;10.31;95.54;101007.38;5042402;28;20092;-67
2022/12/05 03:14:32;;;;;;;;;;;;;;;10.36;95.14;101010.50;5044256;28;20134;-67
2022/12/05 03:17:00;;;;;;;;;;;;;;;10.37;94.82;101013.00;5043250;28;19925;-67
2022/12/05 03:19:36;;;;;;;;;;;;;;;10.43;94.48;101019.63;5041568;28;19916;-74
2022/12/05 03:22:25;;;;;;;;;;;;;;;10.46;93.71;101017.56;5042325;28;19924;-74
2022/12/05 03:24:50;;;;;;;;;;;;;;;10.53;93.30;101023.16;5040653;28;19983;-74
2022/12/05 03:27:28;;;;;;;;;;;;;;;10.52;94.23;101021.50;5043822;28;19936;-67
2022/12/05 03:29:54;;;;;;;;;;;;;;;10.47;93.57;101013.94;5042670;28;19913;-67
2022/12/05 03:32:45;;;;;;;;;;;;;;;10.43;94.30;101019.63;5044186;28;20293;-73
2022/12/05 03:35:14;;;;;;;;;;;;;;;10.46;93.67;101022.84;5040078;28;19913;-74
2022/12/05 03:37:48;;;;;;;;;;;;;;;10.45;94.10;101015.88;5041233;28;19917;-67
2022/12/05 03:40:33;;;;;;;;;;;;;;;10.45;94.38;101020.34;5041512;28;19928;-74
2022/12/05 03:43:08;;;;;;;;;;;;;;;10.46;94.49;101014.91;5041214;28;19917;-67
2022/12/05 03:45:38;;;;;;;;;;;;;;;10.47;94.12;101016.59;5043163;28;19917;-67
2022/12/05 03:48:07;;;;;;;;;;;;;;;10.44;94.41;101013.34;5041561;28;19909;-66
2022/12/05 03:50:33;;;;;;;;;;;;;;;10.39;94.83;101015.53;5040710;28;19917;-67
2022/12/05 03:53:03;;;;;;;;;;;;;;;10.40;94.62;101017.19;5041299;28;20169;-67
2022/12/05 03:55:32;;;;;;;;;;;;;;;10.41;94.57;101014.47;5041624;28;19924;-74
2022/12/05 03:57:59;;;;;;;;;;;;;;;10.46;94.49;101014.91;5041695;28;19921;-67
2022/12/05 04:00:28;;;;;;;;;;;;;;;10.49;95.21;101013.81;5041172;28;19916;-66
2022/12/05 04:02:53;;;;;;;;;;;;;;;10.47;94.47;101021.88;5041294;28;19921;-67
2022/12/05 04:05:22;;;;;;;;;;;;;;;10.46;95.76;101016.72;5041574;28;19924;-67
2022/12/05 04:07:49;;;;;;;;;;;;;;;10.46;94.95;101022.84;5041646;28;19913;-74
2022/12/05 04:10:17;;;;;;;;;;;;;;;10.45;95.79;101015.88;5040383;28;19923;-74
2022/12/05 04:12:43;;;;;;;;;;;;;;;10.46;95.37;101022.84;5042308;28;19913;-67
2022/12/05 04:15:15;;;;;;;;;;;;;;;10.48;95.17;101010.31;5043141;28;19948;-74
2022/12/05 04:17:47;;;;;;;;;;;;;;;10.54;94.47;101014.25;5023534;28;20261;-71
2022/12/05 04:23:12;;;;;;;;;;;;;;;10.35;95.71;101011.47;5040971;28;19979;-67
2022/12/05 04:25:42;;;;;;;;;;;;;;;10.32;96.22;101003.78;5026313;28;19909;-74
2022/12/05 04:28:24;;;;;;;;;;;;;;;10.32;96.04;101003.78;5042803;28;19909;-74
2022/12/05 04:31:01;;;;;;;;;;;;;;;10.29;95.66;101009.34;5043760;28;19913;-66
2022/12/05 04:33:36;;;;;;;;;;;;;;;10.28;96.37;101007.66;5044400;28;19913;-74
2022/12/05 04:36:10;;;;;;;;;;;;;;;10.28;95.58;101007.66;5043715;28;19913;-67
2022/12/05 04:38:45;;;;;;;;;;;;;;;10.27;95.49;101012.09;5043941;28;19944;-73
2022/12/05 04:41:13;;;;;;;;;;;;;;;10.27;95.99;101009.47;5043681;28;19987;-67
2022/12/05 04:43:40;;;;;;;;;;;;;;;10.28;96.52;101011.13;5043828;28;19920;-74
2022/12/05 04:46:08;;;;;;;;;;;;;;;10.33;95.40;101014.25;5043468;28;19919;-74
2022/12/05 04:48:36;;;;;;;;;;;;;;;10.35;94.70;101014.09;5043764;28;19913;-66
2022/12/05 04:51:03;;;;;;;;;;;;;;;10.37;94.92;101028.06;5025769;28;19913;-67
2022/12/05 04:53:29;;;;;;;;;;;;;;;10.36;94.96;101013.97;5025133;28;20241;-74
2022/12/05 04:55:57;;;;;;;;;;;;;;;10.40;94.32;101010.13;5029071;28;19918;-74
2022/12/05 04:58:24;;;;;;;;;;;;;;;10.46;93.92;101014.91;5024251;28;19924;-73
2022/12/05 05:00:58;;;;;;;;;;;;;;;10.45;93.49;101021.19;5024773;28;19917;-66
2022/12/05 05:03:27;;;;;;;;;;;;;;;10.35;94.62;101016.75;5025426;28;20206;-74
2022/12/05 05:05:54;;;;;;;;;;;;;;;10.17;94.64;101019.09;5023843;28;20139;-67
2022/12/05 05:08:21;;;;;;;;;;;;;;;10.14;95.60;101020.19;5026803;28;20107;-67
2022/12/05 05:10:51;;;;;;;;;;;;;;;10.21;95.83;101020.56;5030944;28;19923;-67
2022/12/05 05:13:16;;;;;;;;;;;;;;;10.28;95.10;101020.88;5023925;28;19975;-67
2022/12/05 05:15:42;;;;;;;;;;;;;;;10.26;95.46;101021.03;5025453;28;19918;-73
2022/12/05 05:18:08;;;;;;;;;;;;;;;10.23;96.13;101018.63;5026690;28;20317;-67
2022/12/05 05:20:34;;;;;;;;;;;;;;;10.26;95.67;101015.72;5024574;28;19976;-74
2022/12/05 05:22:59;;;;;;;;;;;;;;;10.23;96.06;101013.34;5027626;28;20114;-67
2022/12/05 05:25:24;;;;;;;;;;;;;;;10.21;96.38;101017.91;5024909;28;20115;-73
2022/12/05 05:27:51;;;;;;;;;;;;;;;10.27;95.42;101019.22;5025397;28;19925;-73
2022/12/05 05:30:16;;;;;;;;;;;;;;;10.32;95.46;101020.50;5025260;28;19918;-73
2022/12/05 05:32:42;;;;;;;;;;;;;;;10.29;95.68;101023.41;5028187;28;19913;-67
2022/12/05 05:35:07;;;;;;;;;;;;;;;10.32;95.89;101014.38;5030069;28;20012;-67
2022/12/05 05:37:33;;;;;;;;;;;;;;;10.30;94.69;101013.66;5039262;28;20297;-66
2022/12/05 05:39:58;;;;;;;;;;;;;;;10.11;96.65;101016.97;5040159;28;20016;-73
2022/12/05 05:42:23;;;;;;;;;;;;;;;9.96;96.97;101013.78;5035959;28;19918;-66
2022/12/05 05:44:49;;;;;;;;;;;;;;;9.78;97.98;101013.50;5040127;28;19925;-66
2022/12/05 05:47:14;;;;;;;;;;;;;;;9.76;98.59;101015.44;5039455;28;19992;-73
2022/12/05 05:49:39;;;;;;;;;;;;;;;9.66;99.34;101026.91;5039009;28;19959;-67
2022/12/05 05:52:05;;;;;;;;;;;;;;;9.73;99.92;101028.09;5039671;28;19917;-74
2022/12/05 05:54:30;;;;;;;;;;;;;;;9.95;98.92;101022.69;5040144;28;20810;-73
2022/12/05 05:56:55;;;;;;;;;;;;;;;10.02;97.70;101029.16;5039728;28;20206;-73
2022/12/05 05:59:21;;;;;;;;;;;;;;;10.04;97.62;101032.53;5039730;28;19913;-67
2022/12/05 06:01:46;;;;;;;;;;;;;;;10.21;96.33;101029.34;5022819;28;19917;-74
2022/12/05 06:04:11;;;;;;;;;;;;;;;10.15;96.79;101023.69;5041417;28;19913;-67
2022/12/05 06:06:36;;;;;;;;;;;;;;;10.01;97.38;101024.84;5040560;28;20046;-66
2022/12/05 06:09:04;;;;;;;;;;;;;;;10.05;97.01;101028.06;5043931;28;19913;-74
2022/12/05 06:11:30;;;;;;;;;;;;;;;10.19;96.77;101033.91;5043796;28;20163;-73
2022/12/05 06:13:56;;;;;;;;;;;;;;;10.05;96.02;101033.38;5043458;28;19913;-67
2022/12/05 06:16:22;;;;;;;;;;;;;;;9.96;96.81;101034.13;5012217;28;19918;-67
2022/12/05 06:18:48;;;;;;;;;;;;;;;10.00;97.82;101035.56;5043270;28;19952;-74
2022/12/05 06:21:14;;;;;;;;;;;;;;;10.07;97.13;101042.00;5043458;28;19917;-66
2022/12/05 06:23:39;;;;;;;;;;;;;;;10.13;96.08;101046.81;5025552;28;19948;-74
2022/12/05 06:26:05;;;;;;;;;;;;;;;10.14;95.62;101044.03;5043133;28;19924;-73
2022/12/05 06:28:31;;;;;;;;;;;;;;;10.18;95.28;101050.75;5043300;28;20001;-67
2022/12/05 06:30:56;;;;;;;;;;;;;;;10.26;95.16;101049.28;5042141;28;19917;-68
2022/12/05 06:33:22;;;;;;;;;;;;;;;10.32;94.50;101054.06;5044074;28;19913;-74
2022/12/05 06:35:47;;;;;;;;;;;;;;;10.41;94.40;101058.63;5044887;28;20187;-73
2022/12/05 06:38:12;;;;;;;;;;;;;;;10.51;93.44;101064.84;5044318;28;20087;-67
2022/12/05 06:40:39;;;;;;;;;;;;;;;10.54;93.50;101073.34;5042944;28;19924;-68
2022/12/05 06:43:04;;;;;;;;;;;;;;;10.57;93.04;101069.63;5042144;28;19920;-69
2022/12/05 06:45:30;;;;;;;;;;;;;;;10.59;93.05;101070.31;5042763;28;20179;-72
2022/12/05 06:47:55;;;;;;;;;;;;;;;10.58;92.38;101075.75;5042677;28;19921;-67
2022/12/05 06:50:20;;;;;;;;;;;;;;;10.46;92.94;101080.28;5042889;28;19917;-74
2022/12/05 06:52:46;;;;;;;;;;;;;;;10.35;92.79;101075.84;5042912;28;19928;-67
2022/12/05 06:55:11;;;;;;;;;;;;;;;10.23;93.55;101085.66;5043081;28;19944;-67
2022/12/05 06:57:36;;;;;;;;;;;;;;;10.36;94.19;101087.28;5043154;28;19924;-74
2022/12/05 07:02:49;;;;;;;;;;;;;;;10.52;94.03;101087.69;5003348;28;20270;-66
2022/12/05 07:05:14;;;;;;;;;;;;;;;10.62;93.01;101091.25;5003046;28;19918;-71
2022/12/05 07:07:39;;;;;;;;;;;;;;;10.64;93.20;101089.31;5003104;28;19988;-74
2022/12/05 07:10:05;;;;;;;;;;;;;;;10.66;93.30;101100.63;5003467;28;19914;-72
2022/12/05 07:12:31;;;;;;;;;;;;;;;10.76;93.37;101092.72;5003252;28;19989;-67
2022/12/05 07:14:56;;;;;;;;;;;;;;;10.78;91.75;101099.59;5003349;28;19920;-67
2022/12/05 07:17:22;;;;;;;;;;;;;;;10.82;91.78;101095.69;5003113;28;19989;-74
2022/12/05 07:19:50;;;;;;;;;;;;;;;10.87;91.08;101100.59;5002323;28;20024;-67
2022/12/05 07:22:16;;;;;;;;;;;;;;;10.87;90.35;101097.97;5002990;28;19918;-68
2022/12/05 07:24:43;;;;;;;;;;;;;;;10.91;90.89;101093.22;4988200;28;19952;-74
2022/12/05 07:27:08;;;;;;;;;;;;;;;10.89;90.40;101101.31;4998005;28;20201;-67
2022/12/05 07:29:33;;;;;;;;;;;;;;;11.03;89.69;101095.66;4989686;28;19922;-74
2022/12/05 07:31:59;;;;;;;;;;;;;;;10.97;89.28;101098.84;4988502;28;19985;-73
2022/12/05 07:34:25;;;;;;;;;;;;;;;10.93;90.84;101104.53;4990398;28;19929;-67
2022/12/05 07:36:50;;;;;;;;;;;;;;;10.96;90.29;101094.50;4992874;28;19960;-67
2022/12/05 07:39:15;;;;;;;;;;;;;;;10.96;88.90;101102.47;4989016;28;19921;-74
2022/12/05 07:41:41;;;;;;;;;;;;;;;11.14;89.16;101105.34;4990467;28;19925;-67
2022/12/05 07:44:07;;;;;;;;;;;;;;;11.08;90.06;101100.56;4987999;28;19921;-66
2022/12/05 07:46:33;;;;;;;;;;;;;;;11.06;89.90;101097.22;4989028;28;19944;-74
2022/12/05 07:48:58;;;;;;;;;;;;;;;10.87;91.07;101092.66;4987902;28;19914;-67
2022/12/05 07:51:23;;;;;;;;;;;;;;;10.95;90.22;101098.13;4989539;28;19986;-67
2022/12/05 07:53:49;;;;;;;;;;;;;;;11.07;88.66;101093.59;5002597;28;19914;-73
2022/12/05 07:56:16;;;;;;;;;;;;;;;11.04;88.78;101092.03;4988819;28;20658;-72
2022/12/05 07:58:44;;;;;;;;;;;;;;;11.10;88.88;101096.81;4987757;28;19913;-65
2022/12/05 08:01:20;;;;;;;;;;;;;;;11.17;88.32;101099.78;5004850;28;19924;-71
2022/12/05 08:03:46;;;;;;;;;;;;;;;10.96;88.55;101097.16;5028550;28;20161;-65
2022/12/05 08:06:16;;;;;;;;;;;;;;;10.94;89.12;101096.47;5028119;28;19963;-73
2022/12/05 08:08:41;;;;;;;;;;;;;;;11.18;87.54;101098.81;5026051;28;20099;-72
2022/12/05 08:11:14;;;;;;;;;;;;;;;11.17;87.59;101094.47;5027360;28;20210;-66
2022/12/05 08:13:39;;;;;;;;;;;;;;;11.07;88.86;101098.91;5025587;28;19977;-65
2022/12/05 08:16:15;;;;;;;;;;;;;;;11.13;89.03;101101.00;5026858;28;19925;-65
2022/12/05 08:18:41;;;;;;;;;;;;;;;11.09;90.13;101108.41;5025420;28;20099;-73
2022/12/05 08:21:10;;;;;;;;;;;;;;;11.10;89.46;101111.88;5026907;28;19944;-72
2022/12/05 08:23:36;;;;;;;;;;;;;;;11.18;89.46;101109.41;5023756;28;19913;-72
2022/12/05 08:26:06;;;;;;;;;;;;;;;11.13;89.34;101101.84;5023415;28;19948;-72
2022/12/05 08:28:32;;;;;;;;;;;;;;;11.22;87.93;101102.88;5028947;28;20214;-65
2022/12/05 08:31:08;;;;;;;;;;;;;;;11.27;87.62;101100.66;5022511;28;19925;-66
2022/12/05 08:33:34;;;;;;;;;;;;;;;11.26;87.62;101101.63;5022350;28;19957;-72
2022/12/05 08:36:01;;;;;;;;;;;;;;;11.29;86.95;101100.53;5023785;28;19923;-72
2022/12/05 08:38:26;;;;;;;;;;;;;;;11.33;87.38;101092.16;5007201;28;19913;-65
2022/12/05 08:40:51;;;;;;;;;;;;;;;11.41;86.91;101088.84;5021607;28;19925;-65
2022/12/05 08:43:17;;;;;;;;;;;;;;;11.54;86.62;101080.69;5025271;28;20192;-66
2022/12/05 08:45:48;;;;;;;;;;;;;;;11.37;86.92;101090.94;5034151;28;20211;-65
2022/12/05 08:48:13;;;;;;;;;;;;;;;11.40;86.58;101092.47;5022950;28;19920;-65
2022/12/05 08:50:38;;;;;;;;;;;;;;;11.51;86.11;101092.41;5033765;28;19917;-65
2022/12/05 08:53:04;;;;;;;;;;;;;;;11.25;86.60;101088.50;5023793;28;19920;-72
2022/12/05 08:55:29;;;;;;;;;;;;;;;11.32;86.61;101079.03;5021661;28;19925;-65
2022/12/05 08:57:54;;;;;;;;;;;;;;;11.40;86.48;101077.41;5022471;28;20118;-68
2022/12/05 09:00:20;;;;;;;;;;;;;;;11.44;85.59;101070.88;5033695;28;19984;-66
2022/12/05 09:02:49;;;;;;;;;;;;;;;11.59;84.77;101070.50;5039501;28;19920;-72
2022/12/05 09:05:15;;;;;;;;;;;;;;;11.50;85.73;101069.50;5021650;28;19917;-65
2022/12/05 09:07:41;;;;;;;;;;;;;;;11.56;85.69;101061.00;5030400;28;19913;-65
2022/12/05 09:10:06;;;;;;;;;;;;;;;11.60;85.50;101069.53;5022153;28;19960;-72
2022/12/05 09:12:34;;;;;;;;;;;;;;;11.51;84.46;101065.88;5029248;28;19917;-73
2022/12/05 09:14:59;;;;;;;;;;;;;;;11.51;84.71;101060.56;5022696;28;19909;-73
2022/12/05 09:17:24;;;;;;;;;;;;;;;11.45;85.72;101055.81;5031251;28;20019;-65
2022/12/05 09:19:51;;;;;;;;;;;;;;;11.44;85.17;101048.78;5027098;28;19964;-65
2022/12/05 09:22:16;;;;;;;;;;;;;;;11.48;83.77;101048.41;5021600;28;20211;-66
2022/12/05 09:24:41;;;;;;;;;;;;;;;11.08;84.42;101051.06;5028445;28;19913;-67
2022/12/05 09:27:07;;;;;;;;;;;;;;;11.08;85.06;101048.41;5018661;28;19924;-72
2022/12/05 09:29:32;;;;;;;;;;;;;;;11.08;84.83;101050.22;5021754;28;19921;-66
2022/12/05 09:31:58;;;;;;;;;;;;;;;11.18;84.42;101045.78;5026931;28;20233;-72
2022/12/05 09:34:24;;;;;;;;;;;;;;;11.15;85.71;101048.69;5033964;28;20138;-72
2022/12/05 09:36:50;;;;;;;;;;;;;;;11.16;85.12;101035.31;5028683;28;19918;-72
2022/12/05 09:39:16;;;;;;;;;;;;;;;10.98;85.79;101026.31;5025967;28;19912;-65
2022/12/05 09:44:37;;;;;;;;;;;;;;;11.20;85.18;101017.31;5023034;28;19921;-65
2022/12/05 09:47:11;;;;;;;;;;;;;;;11.14;85.05;101016.06;5028401;28;19917;-72
2022/12/05 09:49:42;;;;;;;;;;;;;;;11.27;84.81;101005.19;5021799;28;19913;-65
2022/12/05 09:52:10;;;;;;;;;;;;;;;11.46;84.56;101015.03;5017056;28;19925;-65
2022/12/05 09:54:35;;;;;;;;;;;;;;;11.43;83.66;101004.69;5023674;28;19913;-65
2022/12/05 09:57:02;;;;;;;;;;;;;;;11.56;83.09;101004.44;5029723;28;19917;-72
2022/12/05 09:59:28;;;;;;;;;;;;;;;11.44;84.23;101009.00;5024238;28;19935;-74
2022/12/05 10:02:29;;;;;;;;;;;;;;;11.32;85.73;100994.19;5030996;28;20161;-68
2022/12/05 10:05:00;;;;;;;;;;;;;;;11.43;84.77;100988.75;4938087;29;19914;-68
2022/12/05 10:07:28;;;;;;;;;;;;;;;11.15;83.49;100996.53;5020432;28;20172;-75
2022/12/05 10:10:00;;;;;;;;;;;;;;;11.22;84.41;100994.16;5039090;28;19913;-75
2022/12/05 10:12:28;;;;;;;;;;;;;;;10.95;85.00;100991.28;5022074;28;19918;-68
2022/12/05 10:15:10;;;;;;;;;;;;;;;10.95;85.66;100997.44;5004660;28;20186;-74
2022/12/05 10:17:37;;;;;;;;;;;;;;;11.17;85.26;100983.97;5021896;28;19944;-75
2022/12/05 10:20:23;;;;;;;;;;;;;;;11.26;85.11;100992.09;5022418;28;19925;-68
2022/12/05 10:22:59;;;;;;;;;;;;;;;11.31;84.10;100993.34;5030609;28;20057;-68
2022/12/05 10:25:25;;;;;;;;;;;;;;;11.41;84.19;101001.31;5023989;28;19918;-68
2022/12/05 10:27:52;;;;;;;;;;;;;;;11.46;84.46;100999.13;5023665;28;20285;-68
2022/12/05 10:30:20;;;;;;;;;;;;;;;11.73;83.52;100990.50;5023093;28;19941;-75
2022/12/05 10:32:55;;;;;;;;;;;;;;;11.65;83.31;100983.25;5021392;28;19913;-75
2022/12/05 10:35:20;;;;;;;;;;;;;;;11.36;83.78;100990.28;5025664;28;19988;-68
2022/12/05 10:37:54;;;;;;;;;;;;;;;10.98;85.61;100991.03;5033955;28;19920;-68
2022/12/05 10:40:19;;;;;;;;;;;;;;;11.15;85.07;100982.44;5026810;28;19968;-75
2022/12/05 10:42:46;;;;;;;;;;;;;;;10.94;82.98;100971.06;5022983;28;19913;-68
2022/12/05 10:45:21;;;;;;;;;;;;;;;11.11;84.07;100970.41;5029664;28;19955;-75
2022/12/05 10:47:48;;;;;;;;;;;;;;;11.11;83.81;100968.59;5021620;28;19917;-74
2022/12/05 10:50:24;;;;;;;;;;;;;;;11.26;83.64;100973.53;5029681;28;19926;-68
2022/12/05 10:52:50;;;;;;;;;;;;;;;11.20;83.90;100964.31;5024673;28;19925;-74
2022/12/05 10:55:16;;;;;;;;;;;;;;;11.13;81.18;100964.00;5034218;28;19928;-75
2022/12/05 10:57:42;;;;;;;;;;;;;;;11.24;80.93;100960.41;5041077;28;19913;-68
2022/12/05 11:00:12;;;;;;;;;;;;;;;11.37;81.83;100960.97;5035755;28;19913;-67
2022/12/05 11:02:39;;;;;;;;;;;;;;;11.32;82.86;100949.94;5028737;28;19932;-68
2022/12/05 11:05:05;;;;;;;;;;;;;;;11.49;79.29;100951.94;5027736;28;20199;-75
2022/12/05 11:07:32;;;;;;;;;;;;;;;11.68;76.96;100948.47;5008585;28;20023;-69
2022/12/05 11:09:59;;;;;;;;;;;;;;;11.40;75.91;100942.13;5028207;28;19932;-68
2022/12/05 11:12:33;;;;;;;;;;;;;;;11.49;77.08;100944.00;5026193;28;19918;-68
2022/12/05 11:15:00;;;;;;;;;;;;;;;11.62;75.02;100930.47;5028480;28;19967;-67
2022/12/05 11:17:29;;;;;;;;;;;;;;;11.59;74.20;100933.38;5008706;28;19917;-75
2022/12/05 11:19:55;;;;;;;;;;;;;;;11.51;74.04;100935.91;5026243;28;19919;-67
2022/12/05 11:22:28;;;;;;;;;;;;;;;11.83;74.06;100935.66;5026443;28;19953;-68
2022/12/05 11:24:54;;;;;;;;;;;;;;;11.73;74.77;100922.34;5020601;28;19920;-75
2022/12/05 11:27:29;;;;;;;;;;;;;;;11.68;75.17;100916.63;5029082;28;20199;-75
2022/12/05 11:30:14;;;;;;;;;;;;;;;11.76;73.09;100919.41;5026958;28;19927;-75
2022/12/05 11:32:39;;;;;;;;;;;;;;;11.55;75.86;100913.44;5027419;28;20247;-75
2022/12/05 11:35:04;;;;;;;;;;;;;;;11.19;76.00;100880.44;5025593;28;19913;-68
2022/12/05 11:37:53;;;;;;;;;;;;;;;11.50;75.68;100913.84;5027673;28;19932;-68
2022/12/05 11:40:21;;;;;;;;;;;;;;;11.63;74.65;100910.06;5014810;28;19924;-68
2022/12/05 11:42:52;;;;;;;;;;;;;;;11.62;74.81;100909.22;5026090;28;19920;-67
2022/12/05 11:45:28;;;;;;;;;;;;;;;11.73;74.96;100913.56;5025077;28;19917;-68
2022/12/05 11:48:11;;;;;;;;;;;;;;;11.85;75.31;100906.31;5026865;28;19988;-75
2022/12/05 11:50:44;;;;;;;;;;;;;;;11.47;76.93;100907.97;5027101;28;19917;-67
2022/12/05 11:53:22;;;;;;;;;;;;;;;11.41;78.68;100908.50;5024853;28;19916;-67
2022/12/05 11:55:53;;;;;;;;;;;;;;;11.68;78.28;100911.31;5008710;28;19917;-76
2022/12/05 11:58:34;;;;;;;;;;;;;;;11.36;78.37;100902.78;5025445;28;20187;-75
2022/12/05 12:01:09;;;;;;;;;;;;;;;11.43;79.00;100896.78;5025802;28;20231;-75
2022/12/05 12:03:34;;;;;;;;;;;;;;;11.52;79.54;100898.63;5026309;28;19913;-68
2022/12/05 12:06:00;;;;;;;;;;;;;;;11.49;78.85;100898.06;5026098;28;19967;-75
2022/12/05 12:08:27;;;;;;;;;;;;;;;11.59;78.92;100900.72;5025005;28;19913;-68
2022/12/05 12:10:55;;;;;;;;;;;;;;;11.65;77.59;100900.16;5025615;28;20222;-75
2022/12/05 12:13:21;;;;;;;;;;;;;;;11.79;78.56;100894.44;5026523;28;19913;-68
2022/12/05 12:15:49;;;;;;;;;;;;;;;11.78;77.91;100893.59;5025244;28;20162;-76
2022/12/05 12:18:14;;;;;;;;;;;;;;;11.51;77.55;100891.66;5025459;28;19913;-76
2022/12/05 12:20:39;;;;;;;;;;;;;;;11.70;77.73;100892.59;5034760;28;19932;-75
2022/12/05 12:23:15;;;;;;;;;;;;;;;11.73;78.46;100887.03;5025641;28;19952;-68
2022/12/05 12:25:44;;;;;;;;;;;;;;;11.60;77.91;100884.66;5006422;28;19917;-68
2022/12/05 12:28:28;;;;;;;;;;;;;;;11.29;79.07;100889.25;5026963;28;19925;-75
2022/12/05 12:31:11;;;;;;;;;;;;;;;11.51;78.80;100875.72;5026691;28;19991;-76
2022/12/05 12:33:39;;;;;;;;;;;;;;;11.65;78.23;100879.78;5026066;28;20245;-68
2022/12/05 12:36:07;;;;;;;;;;;;;;;11.82;77.58;100887.03;5024927;28;20103;-69
2022/12/05 12:38:45;;;;;;;;;;;;;;;12.13;76.50;100879.69;5027608;28;20772;-75
2022/12/05 12:41:13;;;;;;;;;;;;;;;12.30;75.40;100882.56;5025602;28;19924;-75
2022/12/05 12:43:38;;;;;;;;;;;;;;;12.37;73.98;100881.00;5025146;28;19913;-75
2022/12/05 12:46:04;;;;;;;;;;;;;;;12.15;75.91;100883.03;5024670;28;20237;-68
2022/12/05 12:48:29;;;;;;;;;;;;;;;12.31;74.75;100878.94;5026796;28;19913;-75
2022/12/05 12:50:55;;;;;;;;;;;;;;;12.48;73.74;100880.81;5034210;28;19917;-68
2022/12/05 12:53:41;;;;;;;;;;;;;;;12.41;74.35;100869.94;5024999;28;19919;-68